createdAt,value
2017-03-17T00:00:16.427Z,0.00
2017-03-17T00:01:10.498Z,0.00
2017-03-17T00:02:10.478Z,0.00
2017-03-17T00:03:05.539Z,0.00
2017-03-17T00:04:00.561Z,0.00
2017-03-17T00:05:01.572Z,0.00
2017-03-17T00:06:01.605Z,0.00
2017-03-17T00:07:01.596Z,0.00
2017-03-17T00:07:56.646Z,0.00
2017-03-17T00:08:50.679Z,0.00
2017-03-17T00:09:50.758Z,0.00
2017-03-17T00:10:45.804Z,0.00
2017-03-17T00:11:39.869Z,0.00
2017-03-17T00:12:27.814Z,0.00
2017-03-17T00:13:16.892Z,0.00
2017-03-17T00:14:16.964Z,0.00
2017-03-17T00:15:11.938Z,0.00
2017-03-17T00:16:11.948Z,0.00
2017-03-17T00:17:06.993Z,0.00
2017-03-17T00:18:01.995Z,0.00
2017-03-17T00:19:02.047Z,0.00
2017-03-17T00:19:57.068Z,0.00
2017-03-17T00:20:52.138Z,0.00
2017-03-17T00:21:52.769Z,0.00
2017-03-17T00:22:47.176Z,0.00
2017-03-17T00:23:42.261Z,0.00
2017-03-17T00:24:43.272Z,0.00
2017-03-17T00:25:44.247Z,0.00
2017-03-17T00:26:39.458Z,0.00
2017-03-17T00:27:33.355Z,0.00
2017-03-17T00:28:33.373Z,0.00
2017-03-17T00:29:33.401Z,0.00
2017-03-17T00:30:33.414Z,0.00
2017-03-17T00:31:27.918Z,0.00
2017-03-17T00:32:16.569Z,0.00
2017-03-17T00:33:16.492Z,0.00
2017-03-17T00:34:05.499Z,0.00
2017-03-17T00:35:00.621Z,0.00
2017-03-17T00:35:54.669Z,0.00
2017-03-17T00:36:54.658Z,0.00
2017-03-17T00:37:49.723Z,0.00
2017-03-17T00:38:49.729Z,0.00
2017-03-17T00:39:44.801Z,0.00
2017-03-17T00:40:38.828Z,0.00
2017-03-17T00:41:38.805Z,0.00
2017-03-17T00:42:32.848Z,0.00
2017-03-17T00:43:26.952Z,0.00
2017-03-17T00:44:15.898Z,0.00
2017-03-17T00:45:04.933Z,0.00
2017-03-17T00:45:53.951Z,0.00
2017-03-17T00:46:42.013Z,0.00
2017-03-17T00:47:30.065Z,0.00
2017-03-17T00:48:19.102Z,0.00
2017-03-17T00:49:13.119Z,0.00
2017-03-17T00:50:14.179Z,0.00
2017-03-17T00:51:14.203Z,0.00
2017-03-17T00:52:09.164Z,0.00
2017-03-17T00:53:09.214Z,0.00
2017-03-17T00:54:03.335Z,0.00
2017-03-17T00:55:03.366Z,0.00
2017-03-17T00:55:58.345Z,0.00
2017-03-17T00:56:53.388Z,0.00
2017-03-17T00:57:53.412Z,0.00
2017-03-17T00:58:48.467Z,0.00
2017-03-17T00:59:48.469Z,0.00
2017-03-17T01:00:48.539Z,0.00
2017-03-17T01:01:48.603Z,0.00
2017-03-17T01:02:42.601Z,0.00
2017-03-17T01:03:42.729Z,0.00
2017-03-17T01:04:37.617Z,0.00
2017-03-17T01:05:32.631Z,0.00
2017-03-17T01:06:27.298Z,0.00
2017-03-17T01:07:21.726Z,0.00
2017-03-17T01:08:15.762Z,0.00
2017-03-17T01:09:15.807Z,0.00
2017-03-17T01:10:04.858Z,0.00
2017-03-17T01:10:59.855Z,0.00
2017-03-17T01:11:48.895Z,0.00
2017-03-17T01:12:37.962Z,0.00
2017-03-17T01:13:32.010Z,0.00
2017-03-17T01:14:26.573Z,0.00
2017-03-17T01:15:20.070Z,0.00
2017-03-17T01:16:14.060Z,0.00
2017-03-17T01:17:08.195Z,0.00
2017-03-17T01:17:57.160Z,0.00
2017-03-17T01:18:51.218Z,0.00
2017-03-17T01:19:40.210Z,0.00
2017-03-17T01:20:40.315Z,0.00
2017-03-17T01:21:41.812Z,0.00
2017-03-17T01:22:35.310Z,0.00
2017-03-17T01:23:29.931Z,0.00
2017-03-17T01:24:23.370Z,0.00
2017-03-17T01:25:17.446Z,0.00
2017-03-17T01:26:11.425Z,0.00
2017-03-17T01:26:59.504Z,0.00
2017-03-17T01:27:53.534Z,0.00
2017-03-17T01:28:47.609Z,0.00
2017-03-17T01:29:35.568Z,0.00
2017-03-17T01:30:36.650Z,0.00
2017-03-17T01:31:36.638Z,0.00
2017-03-17T01:32:36.659Z,0.00
2017-03-17T01:33:25.765Z,0.00
2017-03-17T01:34:13.703Z,0.00
2017-03-17T01:35:07.790Z,0.00
2017-03-17T01:36:01.940Z,0.00
2017-03-17T01:36:56.924Z,0.00
2017-03-17T01:37:51.921Z,0.00
2017-03-17T01:38:45.856Z,0.00
2017-03-17T01:39:33.937Z,0.00
2017-03-17T01:40:28.106Z,0.00
2017-03-17T01:41:22.020Z,0.00
2017-03-17T01:42:17.028Z,0.00
2017-03-17T01:43:06.057Z,0.00
2017-03-17T01:43:54.147Z,0.00
2017-03-17T01:44:42.113Z,0.00
2017-03-17T01:45:31.166Z,0.00
2017-03-17T01:46:25.236Z,0.00
2017-03-17T01:47:19.310Z,0.00
2017-03-17T01:48:08.350Z,0.00
2017-03-17T01:48:56.409Z,0.00
2017-03-17T01:49:50.435Z,0.00
2017-03-17T01:50:50.402Z,0.00
2017-03-17T01:51:46.119Z,0.00
2017-03-17T01:52:39.466Z,0.00
2017-03-17T01:53:28.539Z,0.00
2017-03-17T01:54:17.688Z,0.00
2017-03-17T01:55:06.622Z,0.00
2017-03-17T01:56:00.658Z,0.00
2017-03-17T01:56:48.725Z,0.00
2017-03-17T01:57:48.762Z,0.00
2017-03-17T01:58:42.739Z,0.00
2017-03-17T01:59:36.838Z,0.00
2017-03-17T02:00:25.843Z,0.00
2017-03-17T02:01:19.869Z,0.00
2017-03-17T02:02:13.903Z,0.00
2017-03-17T02:03:01.907Z,0.00
2017-03-17T02:03:55.977Z,0.00
2017-03-17T02:04:44.040Z,0.00
2017-03-17T02:05:38.053Z,0.00
2017-03-17T02:06:26.040Z,0.00
2017-03-17T02:07:21.117Z,0.00
2017-03-17T02:08:21.121Z,0.00
2017-03-17T02:09:15.167Z,0.00
2017-03-17T02:10:04.274Z,0.00
2017-03-17T02:10:53.238Z,0.00
2017-03-17T02:11:48.315Z,0.00
2017-03-17T02:12:37.287Z,0.00
2017-03-17T02:13:31.388Z,0.00
2017-03-17T02:14:26.387Z,0.00
2017-03-17T02:15:14.405Z,0.00
2017-03-17T02:16:02.533Z,0.00
2017-03-17T02:16:51.508Z,0.00
2017-03-17T02:17:40.551Z,0.00
2017-03-17T02:18:34.532Z,0.00
2017-03-17T02:19:23.592Z,0.00
2017-03-17T02:20:11.661Z,0.00
2017-03-17T02:21:06.734Z,0.00
2017-03-17T02:21:55.730Z,0.00
2017-03-17T02:22:49.698Z,0.00
2017-03-17T02:23:37.834Z,0.00
2017-03-17T02:24:25.850Z,0.00
2017-03-17T02:25:20.889Z,0.00
2017-03-17T02:26:09.931Z,0.00
2017-03-17T02:26:57.935Z,0.00
2017-03-17T02:27:47.040Z,0.00
2017-03-17T02:28:40.992Z,0.00
2017-03-17T02:29:30.094Z,0.00
2017-03-17T02:30:19.606Z,0.00
2017-03-17T02:31:08.166Z,0.00
2017-03-17T02:32:02.187Z,0.00
2017-03-17T02:32:56.198Z,0.00
2017-03-17T02:33:44.293Z,0.00
2017-03-17T02:34:39.331Z,0.00
2017-03-17T02:35:33.400Z,0.00
2017-03-17T02:36:27.403Z,0.00
2017-03-17T02:37:27.525Z,0.00
2017-03-17T02:38:22.471Z,0.00
2017-03-17T02:39:17.495Z,0.00
2017-03-17T02:40:05.522Z,0.00
2017-03-17T02:40:53.541Z,0.00
2017-03-17T02:41:47.593Z,0.00
2017-03-17T02:42:41.688Z,0.00
2017-03-17T02:43:30.275Z,0.00
2017-03-17T02:44:18.741Z,0.00
2017-03-17T02:45:06.717Z,0.00
2017-03-17T02:46:06.821Z,0.00
2017-03-17T02:46:55.799Z,0.00
2017-03-17T02:47:43.934Z,0.00
2017-03-17T02:48:38.658Z,0.00
2017-03-17T02:49:31.918Z,0.00
2017-03-17T02:50:27.001Z,0.00
2017-03-17T02:51:27.057Z,0.00
2017-03-17T02:52:27.032Z,0.00
2017-03-17T02:53:21.219Z,0.00
2017-03-17T02:54:16.140Z,0.00
2017-03-17T02:55:10.173Z,0.00
2017-03-17T02:56:04.214Z,0.00
2017-03-17T02:56:59.215Z,0.00
2017-03-17T02:57:47.286Z,0.00
2017-03-17T02:58:36.379Z,0.00
2017-03-17T02:59:24.356Z,0.00
2017-03-17T03:00:18.950Z,0.00
2017-03-17T03:01:07.412Z,0.00
2017-03-17T03:02:02.438Z,0.00
2017-03-17T03:02:56.483Z,0.00
2017-03-17T03:03:45.534Z,0.00
2017-03-17T03:04:34.556Z,0.00
2017-03-17T03:05:34.595Z,0.00
2017-03-17T03:06:22.680Z,0.00
2017-03-17T03:07:16.639Z,0.00
2017-03-17T03:08:05.724Z,0.00
2017-03-17T03:08:59.766Z,0.00
2017-03-17T03:09:54.734Z,0.00
2017-03-17T03:10:43.828Z,0.00
2017-03-17T03:11:37.811Z,0.00
2017-03-17T03:12:25.929Z,0.00
2017-03-17T03:13:20.897Z,0.00
2017-03-17T03:14:14.929Z,0.00
2017-03-17T03:15:03.053Z,0.00
2017-03-17T03:15:51.040Z,0.00
2017-03-17T03:16:45.071Z,0.00
2017-03-17T03:17:34.131Z,0.00
2017-03-17T03:18:22.154Z,0.00
2017-03-17T03:19:17.344Z,0.00
2017-03-17T03:20:05.253Z,0.00
2017-03-17T03:20:53.204Z,0.00
2017-03-17T03:21:42.038Z,0.00
2017-03-17T03:22:29.413Z,0.00
2017-03-17T03:23:29.701Z,0.00
2017-03-17T03:24:23.754Z,0.00
2017-03-17T03:25:12.427Z,0.00
2017-03-17T03:26:00.489Z,0.00
2017-03-17T03:26:54.714Z,0.00
2017-03-17T03:27:48.504Z,0.00
2017-03-17T03:28:43.841Z,0.00
2017-03-17T03:29:32.647Z,0.00
2017-03-17T03:30:27.661Z,0.00
2017-03-17T03:31:22.137Z,0.00
2017-03-17T03:32:10.748Z,0.00
2017-03-17T03:32:59.845Z,0.00
2017-03-17T03:33:53.843Z,0.00
2017-03-17T03:34:42.857Z,0.00
2017-03-17T03:35:31.929Z,0.00
2017-03-17T03:36:25.926Z,0.00
2017-03-17T03:37:13.948Z,0.00
2017-03-17T03:38:03.011Z,0.00
2017-03-17T03:38:57.004Z,0.00
2017-03-17T03:39:51.116Z,0.00
2017-03-17T03:40:45.018Z,0.00
2017-03-17T03:41:33.136Z,0.00
2017-03-17T03:42:33.214Z,0.00
2017-03-17T03:43:27.214Z,0.00
2017-03-17T03:44:16.226Z,0.00
2017-03-17T03:45:05.296Z,0.00
2017-03-17T03:45:59.341Z,0.00
2017-03-17T03:46:54.364Z,0.00
2017-03-17T03:47:42.676Z,0.00
2017-03-17T03:48:36.459Z,0.00
2017-03-17T03:49:24.480Z,0.00
2017-03-17T03:50:18.510Z,0.00
2017-03-17T03:51:07.523Z,0.00
2017-03-17T03:52:01.626Z,0.00
2017-03-17T03:52:50.789Z,0.00
2017-03-17T03:53:45.442Z,0.00
2017-03-17T03:54:39.719Z,0.00
2017-03-17T03:55:27.849Z,0.00
2017-03-17T03:56:15.821Z,0.00
2017-03-17T03:57:09.811Z,0.00
2017-03-17T03:58:03.848Z,0.00
2017-03-17T03:58:52.949Z,0.00
2017-03-17T03:59:47.378Z,0.00
2017-03-17T04:00:35.994Z,0.00
2017-03-17T04:01:24.134Z,0.00
2017-03-17T04:02:18.049Z,0.00
2017-03-17T04:03:06.153Z,0.00
2017-03-17T04:04:00.746Z,0.00
2017-03-17T04:04:48.213Z,0.00
2017-03-17T04:05:42.195Z,0.00
2017-03-17T04:06:36.190Z,0.00
2017-03-17T04:07:25.345Z,0.00
2017-03-17T04:08:19.361Z,0.00
2017-03-17T04:09:08.358Z,0.00
2017-03-17T04:09:57.438Z,0.00
2017-03-17T04:10:52.467Z,0.00
2017-03-17T04:11:40.435Z,0.00
2017-03-17T04:12:29.562Z,0.00
2017-03-17T04:13:18.583Z,0.00
2017-03-17T04:14:07.584Z,0.00
2017-03-17T04:14:55.648Z,0.00
2017-03-17T04:15:44.653Z,0.00
2017-03-17T04:16:39.737Z,0.00
2017-03-17T04:17:34.764Z,0.00
2017-03-17T04:18:34.796Z,0.00
2017-03-17T04:19:29.793Z,0.00
2017-03-17T04:20:23.829Z,0.00
2017-03-17T04:21:12.862Z,0.00
2017-03-17T04:22:00.991Z,0.00
2017-03-17T04:23:00.913Z,0.00
2017-03-17T04:23:54.945Z,0.00
2017-03-17T04:24:48.955Z,0.00
2017-03-17T04:25:43.048Z,0.00
2017-03-17T04:26:37.121Z,0.00
2017-03-17T04:27:26.123Z,0.00
2017-03-17T04:28:15.137Z,0.00
2017-03-17T04:29:09.202Z,0.00
2017-03-17T04:29:58.288Z,0.00
2017-03-17T04:30:46.248Z,0.00
2017-03-17T04:31:35.250Z,0.00
2017-03-17T04:32:30.296Z,0.00
2017-03-17T04:33:24.412Z,0.00
2017-03-17T04:34:13.434Z,0.00
2017-03-17T04:35:02.672Z,0.00
2017-03-17T04:35:50.461Z,0.00
2017-03-17T04:36:44.534Z,0.00
2017-03-17T04:37:32.565Z,0.00
2017-03-17T04:38:26.616Z,0.00
2017-03-17T04:39:15.641Z,0.00
2017-03-17T04:40:04.220Z,0.00
2017-03-17T04:40:51.685Z,0.00
2017-03-17T04:41:40.731Z,0.00
2017-03-17T04:42:30.226Z,0.00
2017-03-17T04:43:30.721Z,0.00
2017-03-17T04:44:23.890Z,0.00
2017-03-17T04:45:12.872Z,0.00
2017-03-17T04:46:07.290Z,0.00
2017-03-17T04:47:00.995Z,0.00
2017-03-17T04:47:49.068Z,0.00
2017-03-17T04:48:38.079Z,0.00
2017-03-17T04:49:33.086Z,0.00
2017-03-17T04:50:28.133Z,0.00
2017-03-17T04:51:28.119Z,0.00
2017-03-17T04:52:16.200Z,0.00
2017-03-17T04:53:04.291Z,0.00
2017-03-17T04:53:53.809Z,0.00
2017-03-17T04:54:41.298Z,0.00
2017-03-17T04:55:30.331Z,0.00
2017-03-17T04:56:19.384Z,0.00
2017-03-17T04:57:13.431Z,0.00
2017-03-17T04:58:01.459Z,0.00
2017-03-17T04:58:50.570Z,0.00
2017-03-17T04:59:45.574Z,0.00
2017-03-17T05:00:45.607Z,0.00
2017-03-17T05:01:40.596Z,0.00
2017-03-17T05:02:34.622Z,0.00
2017-03-17T05:03:23.704Z,0.00
2017-03-17T05:04:17.761Z,0.00
2017-03-17T05:05:05.754Z,0.00
2017-03-17T05:05:55.360Z,0.00
2017-03-17T05:06:43.858Z,0.00
2017-03-17T05:07:32.901Z,0.00
2017-03-17T05:08:21.949Z,0.00
2017-03-17T05:09:15.918Z,0.00
2017-03-17T05:10:10.028Z,0.00
2017-03-17T05:11:04.036Z,0.00
2017-03-17T05:11:51.993Z,0.00
2017-03-17T05:12:46.078Z,0.00
2017-03-17T05:13:34.137Z,0.00
2017-03-17T05:14:29.155Z,0.00
2017-03-17T05:15:23.227Z,0.00
2017-03-17T05:16:12.258Z,0.00
2017-03-17T05:17:01.293Z,0.00
2017-03-17T05:17:56.414Z,0.00
2017-03-17T05:18:50.363Z,0.00
2017-03-17T05:19:44.380Z,0.00
2017-03-17T05:20:32.470Z,0.00
2017-03-17T05:21:20.485Z,0.00
2017-03-17T05:22:15.496Z,0.00
2017-03-17T05:23:09.758Z,0.00
2017-03-17T05:24:04.562Z,0.00
2017-03-17T05:24:53.577Z,0.00
2017-03-17T05:25:47.674Z,0.00
2017-03-17T05:26:36.703Z,0.00
2017-03-17T05:27:36.691Z,0.00
2017-03-17T05:28:31.726Z,0.00
2017-03-17T05:29:19.832Z,0.00
2017-03-17T05:30:19.737Z,0.00
2017-03-17T05:31:14.443Z,0.00
2017-03-17T05:32:08.904Z,0.00
2017-03-17T05:33:02.942Z,0.00
2017-03-17T05:33:51.940Z,0.00
2017-03-17T05:34:41.008Z,0.00
2017-03-17T05:35:41.080Z,0.00
2017-03-17T05:36:36.072Z,0.00
2017-03-17T05:37:31.136Z,0.00
2017-03-17T05:38:31.153Z,0.00
2017-03-17T05:39:31.383Z,0.00
2017-03-17T05:40:31.224Z,0.00
2017-03-17T05:41:26.223Z,0.00
2017-03-17T05:42:21.341Z,0.00
2017-03-17T05:43:16.095Z,0.00
2017-03-17T05:44:03.328Z,0.00
2017-03-17T05:44:57.383Z,0.00
2017-03-17T05:45:45.403Z,0.00
2017-03-17T05:46:33.442Z,0.00
2017-03-17T05:47:22.556Z,0.00
2017-03-17T05:48:17.301Z,0.00
2017-03-17T05:49:04.568Z,0.00
2017-03-17T05:49:53.578Z,0.00
2017-03-17T05:50:48.611Z,0.00
2017-03-17T05:51:37.692Z,0.00
2017-03-17T05:52:26.736Z,0.01
2017-03-17T05:53:20.726Z,0.01
2017-03-17T05:54:20.725Z,0.01
2017-03-17T05:55:08.858Z,0.01
2017-03-17T05:56:03.879Z,0.01
2017-03-17T05:56:52.905Z,0.01
2017-03-17T05:57:47.338Z,0.01
2017-03-17T05:58:34.995Z,0.01
2017-03-17T05:59:24.017Z,0.01
2017-03-17T06:00:19.126Z,0.01
2017-03-17T06:01:13.136Z,0.01
2017-03-17T06:02:01.120Z,0.01
2017-03-17T06:02:50.063Z,0.01
2017-03-17T06:03:37.289Z,0.01
2017-03-17T06:04:26.325Z,0.01
2017-03-17T06:05:14.360Z,0.01
2017-03-17T06:06:08.345Z,0.01
2017-03-17T06:06:57.338Z,0.02
2017-03-17T06:07:51.409Z,0.02
2017-03-17T06:08:40.419Z,0.02
2017-03-17T06:09:35.493Z,0.02
2017-03-17T06:10:23.893Z,0.02
2017-03-17T06:11:24.026Z,0.02
2017-03-17T06:12:12.622Z,0.02
2017-03-17T06:13:01.615Z,0.02
2017-03-17T06:13:50.629Z,0.02
2017-03-17T06:14:39.746Z,0.02
2017-03-17T06:15:28.748Z,0.02
2017-03-17T06:16:16.817Z,0.02
2017-03-17T06:17:04.834Z,0.02
2017-03-17T06:17:53.927Z,0.02
2017-03-17T06:18:42.944Z,0.02
2017-03-17T06:19:30.961Z,0.02
2017-03-17T06:20:19.978Z,0.02
2017-03-17T06:21:14.021Z,0.02
2017-03-17T06:22:03.036Z,0.02
2017-03-17T06:22:52.928Z,0.02
2017-03-17T06:23:40.162Z,0.02
2017-03-17T06:24:29.213Z,0.02
2017-03-17T06:25:18.221Z,0.03
2017-03-17T06:26:07.282Z,0.03
2017-03-17T06:26:55.279Z,0.03
2017-03-17T06:27:44.371Z,0.03
2017-03-17T06:28:32.428Z,0.03
2017-03-17T06:29:21.589Z,0.03
2017-03-17T06:30:15.497Z,0.03
2017-03-17T06:31:03.536Z,0.03
2017-03-17T06:31:57.596Z,0.03
2017-03-17T06:32:46.597Z,0.03
2017-03-17T06:33:40.646Z,0.02
2017-03-17T06:34:34.635Z,0.02
2017-03-17T06:35:24.429Z,0.02
2017-03-17T06:36:17.733Z,0.02
2017-03-17T06:37:06.767Z,0.02
2017-03-17T06:38:00.800Z,0.02
2017-03-17T06:38:49.898Z,0.02
2017-03-17T06:39:43.902Z,0.01
2017-03-17T06:40:32.965Z,0.02
2017-03-17T06:41:21.991Z,0.02
2017-03-17T06:42:16.018Z,0.02
2017-03-17T06:43:10.619Z,0.02
2017-03-17T06:43:59.072Z,0.02
2017-03-17T06:44:47.120Z,0.02
2017-03-17T06:45:41.126Z,0.02
2017-03-17T06:46:29.531Z,0.02
2017-03-17T06:47:23.212Z,0.02
2017-03-17T06:48:12.306Z,0.02
2017-03-17T06:49:01.284Z,0.02
2017-03-17T06:49:55.367Z,0.02
2017-03-17T06:50:44.437Z,0.02
2017-03-17T06:51:32.720Z,0.02
2017-03-17T06:52:26.644Z,0.01
2017-03-17T06:53:14.502Z,0.02
2017-03-17T06:54:14.563Z,0.02
2017-03-17T06:55:02.565Z,0.03
2017-03-17T06:55:50.633Z,0.03
2017-03-17T06:56:39.703Z,0.02
2017-03-17T06:57:33.742Z,0.02
2017-03-17T06:58:27.990Z,0.02
2017-03-17T06:59:22.825Z,0.02
2017-03-17T07:00:10.783Z,0.03
2017-03-17T07:00:59.063Z,0.03
2017-03-17T07:01:48.006Z,0.02
2017-03-17T07:02:42.308Z,0.02
2017-03-17T07:03:31.633Z,0.02
2017-03-17T07:04:20.017Z,0.01
2017-03-17T07:05:08.025Z,0.01
2017-03-17T07:05:56.146Z,0.01
2017-03-17T07:06:44.163Z,0.02
2017-03-17T07:07:39.231Z,0.02
2017-03-17T07:08:33.518Z,0.02
2017-03-17T07:09:27.255Z,0.02
2017-03-17T07:10:22.339Z,0.02
2017-03-17T07:11:11.347Z,0.02
2017-03-17T07:12:00.970Z,0.02
2017-03-17T07:12:54.433Z,0.02
2017-03-17T07:13:43.412Z,0.02
2017-03-17T07:14:31.824Z,0.03
2017-03-17T07:15:25.519Z,0.05
2017-03-17T07:16:19.579Z,0.06
2017-03-17T07:17:13.632Z,0.06
2017-03-17T07:18:03.253Z,0.06
2017-03-17T07:18:56.720Z,0.06
2017-03-17T07:19:51.720Z,0.06
2017-03-17T07:20:51.719Z,0.07
2017-03-17T07:21:45.787Z,0.07
2017-03-17T07:22:39.860Z,0.06
2017-03-17T07:23:28.858Z,0.07
2017-03-17T07:24:17.892Z,0.07
2017-03-17T07:25:12.934Z,0.06
2017-03-17T07:26:07.942Z,0.05
2017-03-17T07:27:07.982Z,0.05
2017-03-17T07:28:03.038Z,0.05
2017-03-17T07:28:52.076Z,0.06
2017-03-17T07:29:40.109Z,0.06
2017-03-17T07:30:29.130Z,0.07
2017-03-17T07:31:17.223Z,0.07
2017-03-17T07:32:07.090Z,0.06
2017-03-17T07:33:00.296Z,0.06
2017-03-17T07:34:01.358Z,0.07
2017-03-17T07:34:50.344Z,0.07
2017-03-17T07:35:44.381Z,0.07
2017-03-17T07:36:33.419Z,0.08
2017-03-17T07:37:28.429Z,0.09
2017-03-17T07:38:23.463Z,0.09
2017-03-17T07:39:11.604Z,0.09
2017-03-17T07:40:00.571Z,0.09
2017-03-17T07:40:54.632Z,0.09
2017-03-17T07:41:48.637Z,0.10
2017-03-17T07:42:42.758Z,0.12
2017-03-17T07:43:30.713Z,0.13
2017-03-17T07:44:19.797Z,0.15
2017-03-17T07:45:08.627Z,0.15
2017-03-17T07:45:56.831Z,0.16
2017-03-17T07:46:44.882Z,0.16
2017-03-17T07:47:38.986Z,0.16
2017-03-17T07:48:27.045Z,0.16
2017-03-17T07:49:16.064Z,0.17
2017-03-17T07:50:17.062Z,0.18
2017-03-17T07:51:05.113Z,0.18
2017-03-17T07:51:54.155Z,0.18
2017-03-17T07:52:43.165Z,0.18
2017-03-17T07:53:31.227Z,0.17
2017-03-17T07:54:25.271Z,0.16
2017-03-17T07:55:19.364Z,0.15
2017-03-17T07:56:19.364Z,0.15
2017-03-17T07:57:07.370Z,0.15
2017-03-17T07:57:56.395Z,0.15
2017-03-17T07:58:56.498Z,0.15
2017-03-17T07:59:44.448Z,0.16
2017-03-17T08:00:33.538Z,0.16
2017-03-17T08:01:27.581Z,0.16
2017-03-17T08:02:21.605Z,0.16
2017-03-17T08:03:15.641Z,0.16
2017-03-17T08:04:10.968Z,0.16
2017-03-17T08:04:58.712Z,0.16
2017-03-17T08:05:46.785Z,0.16
2017-03-17T08:06:41.048Z,0.16
2017-03-17T08:07:28.821Z,0.17
2017-03-17T08:08:22.901Z,0.18
2017-03-17T08:09:12.490Z,0.18
2017-03-17T08:10:00.976Z,0.19
2017-03-17T08:10:50.011Z,0.20
2017-03-17T08:11:43.988Z,0.20
2017-03-17T08:12:38.118Z,0.21
2017-03-17T08:13:32.149Z,0.20
2017-03-17T08:14:21.153Z,0.20
2017-03-17T08:15:15.618Z,0.20
2017-03-17T08:16:04.249Z,0.20
2017-03-17T08:16:58.340Z,0.20
2017-03-17T08:17:47.324Z,0.20
2017-03-17T08:18:36.386Z,0.21
2017-03-17T08:19:25.427Z,0.22
2017-03-17T08:20:15.149Z,0.22
2017-03-17T08:21:08.517Z,0.22
2017-03-17T08:21:57.472Z,0.22
2017-03-17T08:22:46.944Z,0.21
2017-03-17T08:23:35.170Z,0.21
2017-03-17T08:24:23.683Z,0.20
2017-03-17T08:25:17.738Z,0.20
2017-03-17T08:26:11.749Z,0.20
2017-03-17T08:26:59.792Z,0.19
2017-03-17T08:27:59.847Z,0.18
2017-03-17T08:28:53.868Z,0.17
2017-03-17T08:29:53.937Z,0.16
2017-03-17T08:30:42.924Z,0.16
2017-03-17T08:31:37.025Z,0.16
2017-03-17T08:32:37.065Z,0.15
2017-03-17T08:33:26.105Z,0.13
2017-03-17T08:34:20.126Z,0.13
2017-03-17T08:35:14.192Z,0.13
2017-03-17T08:36:02.224Z,0.13
2017-03-17T08:36:57.247Z,0.13
2017-03-17T08:37:52.307Z,0.14
2017-03-17T08:38:47.960Z,0.16
2017-03-17T08:39:36.331Z,0.15
2017-03-17T08:40:25.420Z,0.18
2017-03-17T08:41:20.088Z,0.20
2017-03-17T08:42:08.525Z,0.15
2017-03-17T08:43:08.550Z,0.14
2017-03-17T08:44:08.509Z,0.13
2017-03-17T08:44:57.600Z,0.14
2017-03-17T08:45:51.846Z,0.17
2017-03-17T08:46:40.676Z,0.43
2017-03-17T08:47:35.804Z,0.27
2017-03-17T08:48:24.729Z,0.30
2017-03-17T08:49:19.155Z,0.41
2017-03-17T08:50:07.814Z,0.48
2017-03-17T08:51:01.882Z,0.51
2017-03-17T08:51:51.551Z,0.50
2017-03-17T08:52:44.973Z,0.38
2017-03-17T08:53:34.046Z,0.60
2017-03-17T08:54:35.053Z,0.53
2017-03-17T08:55:30.053Z,0.35
2017-03-17T08:56:30.113Z,0.26
2017-03-17T08:57:18.171Z,0.57
2017-03-17T08:58:07.241Z,0.42
2017-03-17T08:59:02.250Z,0.27
2017-03-17T08:59:56.250Z,0.50
2017-03-17T09:00:44.355Z,0.45
2017-03-17T09:01:38.358Z,0.29
2017-03-17T09:02:27.437Z,0.58
2017-03-17T09:03:16.517Z,0.60
2017-03-17T09:04:10.537Z,0.35
2017-03-17T09:05:04.575Z,0.55
2017-03-17T09:05:53.298Z,0.37
2017-03-17T09:06:53.191Z,0.35
2017-03-17T09:07:47.668Z,0.27
2017-03-17T09:08:35.778Z,0.31
2017-03-17T09:09:25.445Z,0.40
2017-03-17T09:10:18.852Z,0.49
2017-03-17T09:11:07.884Z,0.18
2017-03-17T09:12:07.903Z,0.14
2017-03-17T09:13:02.959Z,0.18
2017-03-17T09:13:51.034Z,0.19
2017-03-17T09:14:40.032Z,0.21
2017-03-17T09:15:29.046Z,0.57
2017-03-17T09:16:24.268Z,0.18
2017-03-17T09:17:18.183Z,0.58
2017-03-17T09:18:06.241Z,0.43
2017-03-17T09:18:54.501Z,0.13
2017-03-17T09:19:43.290Z,0.13
2017-03-17T09:20:38.400Z,0.18
2017-03-17T09:21:27.979Z,0.60
2017-03-17T09:22:21.415Z,0.45
2017-03-17T09:23:10.479Z,0.56
2017-03-17T09:24:05.558Z,0.57
2017-03-17T09:24:59.705Z,0.16
2017-03-17T09:25:48.674Z,0.56
2017-03-17T09:26:42.663Z,0.57
2017-03-17T09:27:37.975Z,0.15
2017-03-17T09:28:31.715Z,0.55
2017-03-17T09:29:20.873Z,0.56
2017-03-17T09:30:14.873Z,0.15
2017-03-17T09:31:08.859Z,0.59
2017-03-17T09:32:02.912Z,0.61
2017-03-17T09:32:56.989Z,0.60
2017-03-17T09:33:46.078Z,0.16
2017-03-17T09:34:41.049Z,0.61
2017-03-17T09:35:29.457Z,0.63
2017-03-17T09:36:29.447Z,0.20
2017-03-17T09:37:24.169Z,0.16
2017-03-17T09:38:19.255Z,0.17
2017-03-17T09:39:13.336Z,0.19
2017-03-17T09:40:01.941Z,0.62
2017-03-17T09:40:50.410Z,0.24
2017-03-17T09:41:45.450Z,0.30
2017-03-17T09:42:40.427Z,0.28
2017-03-17T09:43:36.053Z,0.29
2017-03-17T09:44:30.857Z,0.29
2017-03-17T09:45:24.771Z,0.28
2017-03-17T09:46:12.660Z,0.38
2017-03-17T09:47:07.279Z,0.29
2017-03-17T09:48:06.737Z,0.42
2017-03-17T09:49:00.809Z,0.56
2017-03-17T09:49:49.799Z,0.30
2017-03-17T09:50:43.908Z,0.34
2017-03-17T09:51:33.563Z,0.74
2017-03-17T09:52:26.954Z,0.34
2017-03-17T09:53:22.041Z,0.37
2017-03-17T09:54:11.050Z,0.59
2017-03-17T09:55:05.749Z,0.50
2017-03-17T09:56:05.790Z,0.41
2017-03-17T09:57:00.191Z,0.40
2017-03-17T09:57:54.262Z,0.38
2017-03-17T09:58:48.321Z,0.36
2017-03-17T09:59:43.337Z,0.34
2017-03-17T10:00:32.369Z,0.35
2017-03-17T10:01:21.490Z,0.37
2017-03-17T10:02:22.475Z,0.33
2017-03-17T10:03:16.626Z,0.46
2017-03-17T10:04:10.507Z,0.40
2017-03-17T10:05:06.301Z,0.34
2017-03-17T10:06:00.646Z,0.33
2017-03-17T10:06:54.725Z,0.32
2017-03-17T10:07:48.782Z,0.33
2017-03-17T10:08:42.814Z,0.41
2017-03-17T10:09:38.365Z,0.34
2017-03-17T10:10:31.898Z,0.34
2017-03-17T10:11:20.937Z,0.34
2017-03-17T10:12:14.980Z,0.34
2017-03-17T10:13:09.960Z,0.32
2017-03-17T10:13:58.074Z,0.33
2017-03-17T10:14:47.131Z,0.32
2017-03-17T10:15:36.754Z,0.35
2017-03-17T10:16:24.212Z,0.32
2017-03-17T10:17:18.402Z,0.33
2017-03-17T10:18:07.851Z,0.37
2017-03-17T10:19:01.360Z,0.34
2017-03-17T10:19:49.486Z,0.31
2017-03-17T10:20:43.444Z,0.30
2017-03-17T10:21:37.827Z,0.30
2017-03-17T10:22:31.574Z,0.31
2017-03-17T10:23:20.610Z,0.34
2017-03-17T10:24:14.581Z,0.35
2017-03-17T10:25:03.725Z,0.36
2017-03-17T10:25:57.751Z,0.37
2017-03-17T10:26:46.746Z,0.37
2017-03-17T10:27:36.391Z,0.37
2017-03-17T10:28:24.843Z,0.36
2017-03-17T10:29:19.948Z,0.35
2017-03-17T10:30:19.945Z,0.34
2017-03-17T10:31:09.123Z,0.33
2017-03-17T10:32:03.048Z,0.32
2017-03-17T10:32:51.411Z,0.31
2017-03-17T10:33:40.602Z,0.30
2017-03-17T10:34:29.239Z,0.29
2017-03-17T10:35:17.226Z,0.29
2017-03-17T10:36:06.351Z,0.28
2017-03-17T10:37:06.389Z,0.28
2017-03-17T10:38:00.450Z,0.28
2017-03-17T10:38:55.463Z,0.27
2017-03-17T10:39:49.526Z,0.27
2017-03-17T10:40:44.708Z,0.26
2017-03-17T10:41:32.586Z,0.26
2017-03-17T10:42:27.574Z,0.25
2017-03-17T10:43:15.621Z,0.25
2017-03-17T10:44:10.718Z,0.25
2017-03-17T10:44:59.751Z,0.25
2017-03-17T10:45:48.856Z,0.26
2017-03-17T10:46:48.847Z,0.26
2017-03-17T10:47:36.909Z,0.26
2017-03-17T10:48:31.940Z,0.26
2017-03-17T10:49:19.924Z,0.26
2017-03-17T10:50:08.045Z,0.26
2017-03-17T10:51:02.067Z,0.25
2017-03-17T10:51:51.050Z,0.25
2017-03-17T10:52:40.211Z,0.24
2017-03-17T10:53:35.240Z,0.24
2017-03-17T10:54:35.243Z,0.22
2017-03-17T10:55:29.324Z,0.22
2017-03-17T10:56:17.357Z,0.21
2017-03-17T10:57:12.351Z,0.21
2017-03-17T10:58:00.499Z,0.21
2017-03-17T10:58:54.810Z,0.21
2017-03-17T10:59:42.573Z,0.22
2017-03-17T11:00:31.556Z,0.22
2017-03-17T11:01:19.942Z,0.22
2017-03-17T11:02:13.643Z,0.23
2017-03-17T11:03:08.708Z,0.23
2017-03-17T11:04:03.058Z,0.23
2017-03-17T11:04:57.794Z,0.23
2017-03-17T11:05:51.852Z,0.23
2017-03-17T11:06:45.855Z,0.23
2017-03-17T11:07:34.934Z,0.22
2017-03-17T11:08:23.944Z,0.22
2017-03-17T11:09:19.657Z,0.22
2017-03-17T11:10:13.025Z,0.21
2017-03-17T11:11:02.083Z,0.22
2017-03-17T11:11:56.039Z,0.22
2017-03-17T11:12:44.145Z,0.22
2017-03-17T11:13:32.230Z,0.22
2017-03-17T11:14:21.914Z,0.22
2017-03-17T11:15:09.338Z,0.22
2017-03-17T11:15:58.299Z,0.21
2017-03-17T11:16:52.398Z,0.21
2017-03-17T11:17:46.419Z,0.22
2017-03-17T11:18:35.507Z,0.22
2017-03-17T11:19:24.819Z,0.22
2017-03-17T11:20:12.532Z,0.21
2017-03-17T11:21:01.631Z,0.21
2017-03-17T11:21:49.696Z,0.21
2017-03-17T11:22:37.719Z,0.21
2017-03-17T11:23:25.777Z,0.20
2017-03-17T11:24:13.770Z,0.20
2017-03-17T11:25:02.844Z,0.20
2017-03-17T11:25:50.899Z,0.19
2017-03-17T11:26:45.951Z,0.20
2017-03-17T11:27:34.959Z,0.19
2017-03-17T11:28:30.032Z,0.19
2017-03-17T11:29:24.703Z,0.20
2017-03-17T11:30:18.137Z,0.20
2017-03-17T11:31:06.126Z,0.21
2017-03-17T11:31:55.830Z,0.22
2017-03-17T11:32:43.322Z,0.22
2017-03-17T11:33:32.295Z,0.24
2017-03-17T11:34:26.889Z,0.24
2017-03-17T11:35:21.363Z,0.25
2017-03-17T11:36:09.420Z,0.26